Time;durP1;ratioP1;P1;durP2;ratioP2;P2;SDS_P1;SDS_P2;PMS_P1;PMS_P2;Temp;Humidity;BMP_temperature;BMP_pressure;BME280_temperature;BME280_humidity;BME280_pressure;Samples;Min_cycle;Max_cycle;Signal;HPM_P1;HPM_P2
2021/08/17 00:00:26;;;;;;;12.77;4.27;;;;;;;;;;4905680;29;20034;-85
2021/08/17 00:02:51;;;;;;;12.27;4.43;;;;;;;;;;4937339;29;20031;-84
2021/08/17 00:05:16;;;;;;;10.93;4.70;;;;;;;;;;4937297;29;20543;-83
2021/08/17 00:07:42;;;;;;;13.60;5.00;;;;;;;;;;4937261;29;20074;-84
2021/08/17 00:10:08;;;;;;;11.53;4.60;;;;;;;;;;4937318;29;20574;-84
2021/08/17 00:12:33;;;;;;;12.75;4.70;;;;;;;;;;4936995;29;20031;-86
2021/08/17 00:14:59;;;;;;;10.87;4.53;;;;;;;;;;4921028;29;20039;-85
2021/08/17 00:17:24;;;;;;;10.50;4.43;;;;;;;;;;4921148;29;20030;-83
2021/08/17 00:19:49;;;;;;;9.97;3.93;;;;;;;;;;4905147;29;20042;-85
2021/08/17 00:22:15;;;;;;;11.27;4.17;;;;;;;;;;4936492;29;20114;-85
2021/08/17 00:24:40;;;;;;;12.87;4.00;;;;;;;;;;4921051;29;20150;-85
2021/08/17 00:27:06;;;;;;;9.43;3.70;;;;;;;;;;4905160;29;20031;-85
2021/08/17 00:29:31;;;;;;;8.60;3.73;;;;;;;;;;4920814;29;20027;-85
2021/08/17 00:31:56;;;;;;;11.47;3.40;;;;;;;;;;4920604;29;20019;-85
2021/08/17 00:34:22;;;;;;;8.60;3.40;;;;;;;;;;4920196;29;20027;-85
2021/08/17 00:36:48;;;;;;;8.27;2.97;;;;;;;;;;4936673;29;20122;-85
2021/08/17 00:39:14;;;;;;;5.65;2.13;;;;;;;;;;4936771;29;20086;-85
2021/08/17 00:41:40;;;;;;;6.60;2.13;;;;;;;;;;4904497;29;20035;-85
2021/08/17 00:44:13;;;;;;;6.80;2.17;;;;;;;;;;4935899;29;20031;-85
2021/08/17 00:46:38;;;;;;;6.05;1.80;;;;;;;;;;4920781;29;20073;-85
2021/08/17 00:49:04;;;;;;;5.80;1.90;;;;;;;;;;4920388;29;20114;-84
2021/08/17 00:51:29;;;;;;;3.73;1.47;;;;;;;;;;4936025;29;20110;-85
2021/08/17 00:53:54;;;;;;;9.07;1.87;;;;;;;;;;4904768;29;20602;-84
2021/08/17 00:56:20;;;;;;;3.50;1.30;;;;;;;;;;4936119;29;20119;-83
2021/08/17 00:58:45;;;;;;;8.13;1.67;;;;;;;;;;4936540;29;20023;-85
2021/08/17 01:01:10;;;;;;;5.80;1.50;;;;;;;;;;4904455;29;20114;-84
2021/08/17 01:03:39;;;;;;;4.10;1.67;;;;;;;;;;4920467;29;20118;-85
2021/08/17 01:06:04;;;;;;;4.93;1.55;;;;;;;;;;4936072;29;20029;-84
2021/08/17 01:08:29;;;;;;;6.07;1.57;;;;;;;;;;4920301;29;20023;-84
2021/08/17 01:10:55;;;;;;;6.97;1.70;;;;;;;;;;4920400;29;20158;-84
2021/08/17 01:13:23;;;;;;;6.00;1.70;;;;;;;;;;4920544;29;20118;-85
2021/08/17 01:15:48;;;;;;;5.28;1.52;;;;;;;;;;4936682;29;20062;-85
2021/08/17 01:18:14;;;;;;;9.83;1.90;;;;;;;;;;4920344;29;20079;-84
2021/08/17 01:20:39;;;;;;;8.17;2.00;;;;;;;;;;4935895;29;20504;-85
2021/08/17 01:23:05;;;;;;;7.27;1.80;;;;;;;;;;4935838;29;20031;-84
2021/08/17 01:25:33;;;;;;;6.93;1.80;;;;;;;;;;4904595;29;20023;-85
2021/08/17 01:27:58;;;;;;;6.03;1.63;;;;;;;;;;4916885;29;20034;-85
2021/08/17 01:30:24;;;;;;;5.73;1.87;;;;;;;;;;4902581;29;20027;-85
2021/08/17 01:32:49;;;;;;;5.57;1.80;;;;;;;;;;4935788;29;20541;-85
2021/08/17 01:35:15;;;;;;;4.50;1.73;;;;;;;;;;4904351;29;20483;-85
2021/08/17 01:37:40;;;;;;;9.53;2.23;;;;;;;;;;4920356;29;20122;-85
2021/08/17 01:40:07;;;;;;;5.83;1.70;;;;;;;;;;4929707;29;20053;-84
2021/08/17 01:42:34;;;;;;;6.13;1.67;;;;;;;;;;4901128;29;20127;-84
2021/08/17 01:44:59;;;;;;;;;;;;;;;;;;4917557;29;20490;-84
2021/08/17 01:47:29;;;;;;;6.00;1.90;;;;;;;;;;4916717;29;19911;-84
2021/08/17 01:49:54;;;;;;;5.45;1.90;;;;;;;;;;4917117;29;20773;-84
2021/08/17 01:52:20;;;;;;;11.63;2.17;;;;;;;;;;4900630;29;20020;-84
2021/08/17 01:54:45;;;;;;;6.37;1.90;;;;;;;;;;4902422;29;20115;-84
2021/08/17 01:57:11;;;;;;;6.23;2.17;;;;;;;;;;4920407;29;21006;-84
2021/08/17 01:59:36;;;;;;;6.00;2.23;;;;;;;;;;4920469;29;20028;-84
2021/08/17 02:02:02;;;;;;;8.47;2.10;;;;;;;;;;4904221;29;20467;-84
2021/08/17 02:04:28;;;;;;;7.53;1.77;;;;;;;;;;4904538;29;20090;-84
2021/08/17 02:06:54;;;;;;;8.27;1.88;;;;;;;;;;4907760;29;20449;-84
2021/08/17 02:09:19;;;;;;;5.00;2.00;;;;;;;;;;4920067;29;20050;-85
2021/08/17 02:11:44;;;;;;;4.47;1.60;;;;;;;;;;4904109;29;20563;-84
2021/08/17 02:14:10;;;;;;;7.90;2.40;;;;;;;;;;4904299;29;20457;-85
2021/08/17 02:16:35;;;;;;;10.53;2.20;;;;;;;;;;4904472;29;20427;-84
2021/08/17 02:19:01;;;;;;;5.13;2.30;;;;;;;;;;4920059;29;20028;-85
2021/08/17 02:21:26;;;;;;;6.80;2.10;;;;;;;;;;4907104;29;20026;-84
2021/08/17 02:23:51;;;;;;;7.17;2.00;;;;;;;;;;4923023;29;20126;-85
2021/08/17 02:26:17;;;;;;;5.53;1.90;;;;;;;;;;4922976;29;20033;-85
2021/08/17 02:28:42;;;;;;;9.37;2.43;;;;;;;;;;4923051;29;20122;-84
2021/08/17 02:31:08;;;;;;;9.30;2.50;;;;;;;;;;4938438;29;20541;-85
2021/08/17 02:33:33;;;;;;;9.07;2.63;;;;;;;;;;4922975;29;20053;-84
2021/08/17 02:35:58;;;;;;;7.53;2.50;;;;;;;;;;4923051;29;20110;-85
2021/08/17 02:38:24;;;;;;;8.40;2.70;;;;;;;;;;4938885;29;20031;-84
2021/08/17 02:40:49;;;;;;;9.43;2.93;;;;;;;;;;4922707;29;20129;-84
2021/08/17 02:43:14;;;;;;;8.83;2.60;;;;;;;;;;4922602;29;20122;-85
2021/08/17 02:45:40;;;;;;;7.57;2.57;;;;;;;;;;4922653;29;20114;-84
2021/08/17 02:48:05;;;;;;;8.10;2.93;;;;;;;;;;4922454;29;20035;-84
2021/08/17 02:50:31;;;;;;;8.38;2.78;;;;;;;;;;4922928;28;20034;-85
2021/08/17 02:52:56;;;;;;;10.33;3.20;;;;;;;;;;4922570;29;20031;-85
2021/08/17 02:55:22;;;;;;;7.03;2.83;;;;;;;;;;4922927;29;20534;-85
2021/08/17 02:57:52;;;;;;;13.30;3.57;;;;;;;;;;4922636;29;20031;-85
2021/08/17 03:00:18;;;;;;;9.15;3.60;;;;;;;;;;4922342;28;20031;-85
2021/08/17 03:02:43;;;;;;;7.50;3.17;;;;;;;;;;4918979;29;20032;-85
2021/08/17 03:05:09;;;;;;;9.13;3.23;;;;;;;;;;4903786;29;20384;-85
2021/08/17 03:07:34;;;;;;;12.30;2.90;;;;;;;;;;4903004;29;20078;-85
2021/08/17 03:10:00;;;;;;;11.63;3.30;;;;;;;;;;4903351;29;20762;-85
2021/08/17 03:12:25;;;;;;;9.47;3.33;;;;;;;;;;4918678;29;20028;-84
2021/08/17 03:14:50;;;;;;;10.67;3.80;;;;;;;;;;4906314;29;20106;-85
2021/08/17 03:17:16;;;;;;;9.07;3.20;;;;;;;;;;4922352;29;20581;-85
2021/08/17 03:19:41;;;;;;;8.47;2.90;;;;;;;;;;4922177;29;20114;-85
2021/08/17 03:22:08;;;;;;;8.80;3.40;;;;;;;;;;4921832;29;20118;-84
2021/08/17 03:24:33;;;;;;;8.93;3.38;;;;;;;;;;4922270;29;20106;-85
2021/08/17 03:26:59;;;;;;;8.50;3.40;;;;;;;;;;4922451;29;20130;-85
2021/08/17 03:29:24;;;;;;;7.93;3.20;;;;;;;;;;4922178;29;20050;-84
2021/08/17 03:31:49;;;;;;;11.60;4.00;;;;;;;;;;4921478;29;20057;-84
2021/08/17 03:34:15;;;;;;;8.23;3.40;;;;;;;;;;4922020;29;20027;-85
2021/08/17 03:36:40;;;;;;;10.90;3.07;;;;;;;;;;4921812;29;20122;-84
2021/08/17 03:39:05;;;;;;;9.30;4.10;;;;;;;;;;4922002;29;20595;-84
2021/08/17 03:41:31;;;;;;;9.67;3.27;;;;;;;;;;4937472;29;20117;-85
2021/08/17 03:43:56;;;;;;;9.13;3.53;;;;;;;;;;4906036;29;20159;-85
2021/08/17 03:46:22;;;;;;;11.23;3.50;;;;;;;;;;4937600;29;20031;-85
2021/08/17 04:48:04;;;;;;;10.70;3.90;;;;;;;;;;4912772;29;20533;-87
2021/08/17 04:51:36;;;;;;;11.80;3.50;;;;;;;;;;4870128;29;20037;-89
2021/08/17 04:54:41;;;;;;;12.52;3.42;;;;;;;;;;4876342;29;20142;-88
2021/08/17 05:04:42;;;;;;;8.93;3.38;;;;;;;;;;4774994;30;20038;-84
2021/08/17 05:07:15;;;;;;;8.65;3.33;;;;;;;;;;4770146;30;20587;-84
2021/08/17 05:09:42;;;;;;;9.35;3.55;;;;;;;;;;4847805;29;20044;-82
2021/08/17 05:12:08;;;;;;;;;;;;;;;;;;4926521;29;20035;-84
2021/08/17 05:14:33;;;;;;;8.35;2.97;;;;;;;;;;4953200;28;19921;-84
2021/08/17 05:16:58;;;;;;;7.47;2.97;;;;;;;;;;4936964;29;20125;-84
2021/08/17 05:19:24;;;;;;;8.63;3.20;;;;;;;;;;4937125;29;20074;-85
2021/08/17 05:21:49;;;;;;;5.90;2.73;;;;;;;;;;4937063;29;20110;-85
2021/08/17 05:24:14;;;;;;;6.87;2.70;;;;;;;;;;4937464;29;20690;-84
2021/08/17 05:26:40;;;;;;;7.23;2.20;;;;;;;;;;4921100;29;20031;-85
2021/08/17 05:29:34;;;;;;;13.37;2.80;;;;;;;;;;4936592;28;20031;-87
2021/08/17 05:32:00;;;;;;;5.88;2.72;;;;;;;;;;4936362;23;20500;-61
2021/08/17 05:34:25;;;;;;;7.47;2.53;;;;;;;;;;4916012;29;20083;-61
2021/08/17 05:36:51;;;;;;;9.00;2.60;;;;;;;;;;4917783;29;20395;-60
2021/08/17 05:39:16;;;;;;;8.00;2.60;;;;;;;;;;4917224;29;20064;-59
2021/08/17 05:41:41;;;;;;;6.07;2.27;;;;;;;;;;4914686;29;20032;-62
2021/08/17 05:44:07;;;;;;;8.30;2.50;;;;;;;;;;4912973;29;20054;-61
2021/08/17 05:46:32;;;;;;;8.17;2.83;;;;;;;;;;4916663;29;20152;-62
2021/08/17 05:48:57;;;;;;;8.80;3.03;;;;;;;;;;4916135;29;20040;-57
2021/08/17 05:51:23;;;;;;;6.33;2.50;;;;;;;;;;4915897;29;20466;-58
2021/08/17 05:53:48;;;;;;;5.70;2.20;;;;;;;;;;4917508;29;20084;-63
2021/08/17 05:56:13;;;;;;;6.73;2.33;;;;;;;;;;4914952;29;20055;-64
2021/08/17 05:58:39;;;;;;;6.70;2.40;;;;;;;;;;4916697;29;20122;-62
2021/08/17 06:01:04;;;;;;;9.93;2.60;;;;;;;;;;4905417;29;20120;-63
2021/08/17 06:03:30;;;;;;;6.03;2.70;;;;;;;;;;4897922;29;20052;-57
2021/08/17 06:05:59;;;;;;;7.83;2.60;;;;;;;;;;4897924;29;20037;-60
2021/08/17 06:08:24;;;;;;;9.23;2.60;;;;;;;;;;4901537;29;20028;-58
2021/08/17 06:10:49;;;;;;;5.17;2.30;;;;;;;;;;4914486;29;20032;-65
2021/08/17 06:13:15;;;;;;;6.23;2.57;;;;;;;;;;4905741;29;20033;-65
2021/08/17 06:15:40;;;;;;;9.47;2.40;;;;;;;;;;4898762;29;20028;-64
2021/08/17 06:18:06;;;;;;;6.33;2.60;;;;;;;;;;4911811;29;20024;-66
2021/08/17 06:20:32;;;;;;;6.73;2.60;;;;;;;;;;4911147;29;20040;-53
2021/08/17 06:22:57;;;;;;;8.25;2.42;;;;;;;;;;4904283;29;20107;-62
2021/08/17 06:25:23;;;;;;;7.37;2.73;;;;;;;;;;4915770;29;20183;-62
2021/08/17 06:27:48;;;;;;;6.17;2.43;;;;;;;;;;4914870;29;20056;-64
2021/08/17 06:30:13;;;;;;;7.23;2.37;;;;;;;;;;4916168;29;20476;-64
2021/08/17 06:32:39;;;;;;;7.83;2.23;;;;;;;;;;4915575;29;20035;-59
2021/08/17 06:35:04;;;;;;;8.23;2.13;;;;;;;;;;4916001;29;20115;-64
2021/08/17 06:37:30;;;;;;;6.83;2.20;;;;;;;;;;4915800;29;20480;-61
2021/08/17 06:39:55;;;;;;;5.77;2.07;;;;;;;;;;4915703;29;20760;-63
2021/08/17 06:42:21;;;;;;;4.47;1.93;;;;;;;;;;4906181;29;20111;-64
2021/08/17 06:44:46;;;;;;;5.57;1.70;;;;;;;;;;4910916;29;20028;-64
2021/08/17 06:47:11;;;;;;;5.37;1.80;;;;;;;;;;4895699;29;20091;-63
2021/08/17 06:49:37;;;;;;;9.33;2.10;;;;;;;;;;4910915;29;20029;-62
2021/08/17 06:52:02;;;;;;;8.97;2.20;;;;;;;;;;4896229;29;20635;-62
2021/08/17 06:54:28;;;;;;;6.93;2.10;;;;;;;;;;4911443;29;20033;-63
2021/08/17 06:56:53;;;;;;;4.43;1.73;;;;;;;;;;4908211;29;20473;-61
2021/08/17 06:59:18;;;;;;;5.73;2.13;;;;;;;;;;4906958;29;20031;-63
2021/08/17 07:01:44;;;;;;;5.83;1.90;;;;;;;;;;4896467;29;20489;-62
2021/08/17 07:04:09;;;;;;;5.40;1.90;;;;;;;;;;4896766;29;20024;-62
2021/08/17 07:06:35;;;;;;;9.27;2.00;;;;;;;;;;4896050;29;20105;-61
2021/08/17 07:09:02;;;;;;;5.63;1.70;;;;;;;;;;4895547;29;20028;-61
2021/08/17 07:11:28;;;;;;;5.50;1.95;;;;;;;;;;4912304;29;20489;-63
2021/08/17 07:13:54;;;;;;;4.25;1.63;;;;;;;;;;4915138;29;20036;-64
2021/08/17 07:16:19;;;;;;;6.10;1.90;;;;;;;;;;4915565;29;20107;-63
2021/08/17 07:18:44;;;;;;;5.87;1.80;;;;;;;;;;4915269;29;20024;-65
2021/08/17 07:21:10;;;;;;;6.70;2.10;;;;;;;;;;4914950;29;20046;-64
2021/08/17 07:23:35;;;;;;;7.97;2.00;;;;;;;;;;4910763;29;20044;-61
2021/08/17 07:26:00;;;;;;;5.80;1.70;;;;;;;;;;4895781;29;20113;-65
2021/08/17 07:28:26;;;;;;;5.37;2.20;;;;;;;;;;4896378;29;20024;-57
2021/08/17 07:30:51;;;;;;;6.40;2.08;;;;;;;;;;4895705;29;20040;-66
2021/08/17 07:33:17;;;;;;;5.93;1.80;;;;;;;;;;4894718;29;20040;-62
2021/08/17 07:35:42;;;;;;;6.50;2.00;;;;;;;;;;4895618;29;20033;-58
2021/08/17 07:38:08;;;;;;;6.13;2.10;;;;;;;;;;4903002;29;20535;-57
2021/08/17 07:40:33;;;;;;;6.97;1.93;;;;;;;;;;4914235;29;20087;-64
2021/08/17 07:42:58;;;;;;;4.10;1.77;;;;;;;;;;4914184;29;20024;-62
2021/08/17 07:45:24;;;;;;;4.97;1.53;;;;;;;;;;4912931;29;20039;-62
2021/08/17 07:47:49;;;;;;;6.23;1.87;;;;;;;;;;4910328;29;20496;-64
2021/08/17 07:50:14;;;;;;;6.10;1.80;;;;;;;;;;4895750;29;20032;-63
2021/08/17 07:52:40;;;;;;;5.67;2.10;;;;;;;;;;4896870;29;20136;-64
2021/08/17 07:55:07;;;;;;;6.07;1.87;;;;;;;;;;4913219;29;20122;-60
2021/08/17 07:57:33;;;;;;;4.00;1.70;;;;;;;;;;4914091;29;20812;-58
2021/08/17 07:59:58;;;;;;;4.63;1.90;;;;;;;;;;4913572;29;20091;-60
2021/08/17 08:02:23;;;;;;;5.30;1.80;;;;;;;;;;4914040;29;20024;-56
2021/08/17 08:04:49;;;;;;;6.23;2.00;;;;;;;;;;4913921;29;20111;-60
2021/08/17 08:07:14;;;;;;;7.30;1.90;;;;;;;;;;4909793;29;20028;-58
2021/08/17 08:09:39;;;;;;;4.63;1.90;;;;;;;;;;4894893;29;20062;-60
2021/08/17 08:12:07;;;;;;;4.90;1.70;;;;;;;;;;4894856;29;20020;-56
2021/08/17 08:14:32;;;;;;;4.75;1.92;;;;;;;;;;4895529;29;20495;-59
2021/08/17 08:16:58;;;;;;;6.07;1.67;;;;;;;;;;4909944;29;20128;-60
2021/08/17 08:19:24;;;;;;;5.55;1.50;;;;;;;;;;4894347;29;20028;-64
2021/08/17 08:21:49;;;;;;;3.00;1.50;;;;;;;;;;4913128;29;20071;-65
2021/08/17 08:24:15;;;;;;;4.40;1.60;;;;;;;;;;4913636;29;20106;-60
2021/08/17 08:26:40;;;;;;;2.87;1.40;;;;;;;;;;4894590;29;20112;-63
2021/08/17 08:29:05;;;;;;;;;;;;;;;;;;4895460;29;20279;-61
2021/08/17 08:31:31;;;;;;;3.77;1.50;;;;;;;;;;4894763;29;19998;-59
2021/08/17 08:33:56;;;;;;;;;;;;;;;;;;4898259;29;20284;-54
2021/08/17 08:36:21;;;;;;;3.97;1.47;;;;;;;;;;4913595;29;20375;-59
2021/08/17 08:38:46;;;;;;;4.28;1.58;;;;;;;;;;4913681;29;20131;-61
2021/08/17 08:41:16;;;;;;;3.50;1.40;;;;;;;;;;4913308;29;20433;-57
2021/08/17 08:43:42;;;;;;;4.65;1.60;;;;;;;;;;4913371;29;20031;-56
2021/08/17 08:46:18;;;;;;;4.20;1.50;;;;;;;;;;4913650;29;20536;-62
2021/08/17 08:48:48;;;;;;;4.45;1.50;;;;;;;;;;4902652;29;20036;-63
2021/08/17 08:51:15;;;;;;;3.90;1.30;;;;;;;;;;4893171;29;20319;-62
2021/08/17 08:53:40;;;;;;;4.47;1.50;;;;;;;;;;4894909;29;20457;-61
2021/08/17 08:56:05;;;;;;;3.08;1.30;;;;;;;;;;4894499;29;20032;-61
2021/08/17 08:58:31;;;;;;;4.65;1.30;;;;;;;;;;4909440;29;20033;-60
2021/08/17 09:00:56;;;;;;;3.33;1.27;;;;;;;;;;4898573;29;20032;-55
2021/08/17 09:03:41;;;;;;;;;;;;;;;;;;4909067;29;20025;-60
2021/08/17 09:06:16;;;;;;;4.43;1.70;;;;;;;;;;4894186;29;19915;-60
2021/08/17 09:08:42;;;;;;;5.40;1.60;;;;;;;;;;4893792;29;20500;-63
2021/08/17 09:11:18;;;;;;;4.43;1.80;;;;;;;;;;4894719;29;20108;-61
2021/08/17 09:13:43;;;;;;;4.88;1.73;;;;;;;;;;4895110;29;20121;-64
2021/08/17 09:16:28;;;;;;;4.73;1.80;;;;;;;;;;4907932;29;20123;-63
2021/08/17 09:18:54;;;;;;;5.57;1.45;;;;;;;;;;4912034;29;20032;-63
2021/08/17 09:21:36;;;;;;;4.70;1.43;;;;;;;;;;4896061;29;20043;-64
2021/08/17 09:24:34;;;;;;;5.03;1.60;;;;;;;;;;4911604;29;20359;-64
2021/08/17 09:27:05;;;;;;;3.92;1.40;;;;;;;;;;4912040;29;20477;-60
2021/08/17 09:29:35;;;;;;;4.80;1.65;;;;;;;;;;4912195;29;20036;-63
2021/08/17 09:32:03;;;;;;;5.15;1.55;;;;;;;;;;4908535;29;20164;-61
2021/08/17 09:34:34;;;;;;;3.42;1.20;;;;;;;;;;4893247;29;20035;-64
2021/08/17 09:37:01;;;;;;;2.60;1.20;;;;;;;;;;4908658;29;20111;-64
2021/08/17 09:39:37;;;;;;;5.65;1.20;;;;;;;;;;4894315;29;20056;-59
2021/08/17 09:42:18;;;;;;;4.32;1.20;;;;;;;;;;4893447;29;20461;-60
2021/08/17 09:44:46;;;;;;;5.53;1.90;;;;;;;;;;4911566;29;20508;-60
2021/08/17 09:47:12;;;;;;;3.63;1.48;;;;;;;;;;4911968;29;20024;-53
2021/08/17 09:49:37;;;;;;;3.63;1.63;;;;;;;;;;4911971;29;20111;-57
2021/08/17 09:52:11;;;;;;;3.07;1.27;;;;;;;;;;4912527;29;20392;-60
2021/08/17 09:54:49;;;;;;;3.15;1.58;;;;;;;;;;4912985;29;20032;-59
2021/08/17 09:57:15;;;;;;;4.30;1.35;;;;;;;;;;4908584;29;20115;-64
2021/08/17 09:59:44;;;;;;;3.17;1.40;;;;;;;;;;4909007;29;20044;-61
2021/08/17 10:02:10;;;;;;;8.90;1.60;;;;;;;;;;4892651;29;20017;-57
2021/08/17 10:04:36;;;;;;;4.67;1.53;;;;;;;;;;4892997;29;20028;-62
2021/08/17 10:07:02;;;;;;;6.78;3.42;;;;;;;;;;4908756;29;20400;-59
2021/08/17 10:09:28;;;;;;;5.45;2.25;;;;;;;;;;4892692;29;20107;-58
2021/08/17 10:11:54;;;;;;;4.20;2.10;;;;;;;;;;4910722;29;20063;-58
2021/08/17 10:14:19;;;;;;;3.80;1.73;;;;;;;;;;4911331;29;20040;-59
2021/08/17 10:16:45;;;;;;;4.67;1.87;;;;;;;;;;4913747;29;20524;-60
2021/08/17 10:19:11;;;;;;;5.10;1.60;;;;;;;;;;4915135;29;20032;-62
2021/08/17 10:21:40;;;;;;;2.63;1.30;;;;;;;;;;4915782;29;20035;-59
2021/08/17 10:24:35;;;;;;;5.07;1.83;;;;;;;;;;4976048;23;20054;-59
2021/08/17 10:27:15;;;;;;;3.67;1.70;;;;;;;;;;4965770;28;20129;-60
2021/08/17 10:30:17;;;;;;;6.60;1.90;;;;;;;;;;4973519;28;20382;-58
2021/08/17 10:32:54;;;;;;;4.10;1.83;;;;;;;;;;4921584;28;20101;-60
2021/08/17 10:35:29;;;;;;;4.05;1.55;;;;;;;;;;4973535;28;20077;-60
2021/08/17 10:38:06;;;;;;;4.25;1.77;;;;;;;;;;4973225;28;20038;-58
2021/08/17 10:40:52;;;;;;;;;;;;;;;;;;4973375;28;20126;-60
2021/08/17 10:43:20;;;;;;;5.93;1.77;;;;;;;;;;4972870;28;19914;-59
2021/08/17 10:46:03;;;;;;;4.47;1.73;;;;;;;;;;4973380;28;20050;-59
2021/08/17 10:51:31;;;;;;;5.50;1.80;;;;;;;;;;4972468;28;20077;-59
2021/08/17 10:53:59;;;;;;;4.82;2.10;;;;;;;;;;4973178;28;20034;-61
2021/08/17 10:56:34;;;;;;;7.03;1.83;;;;;;;;;;4973566;28;20037;-60
2021/08/17 10:59:00;;;;;;;4.65;1.63;;;;;;;;;;4973654;28;20150;-60
2021/08/17 11:01:32;;;;;;;4.90;1.80;;;;;;;;;;4972653;28;20030;-61
2021/08/17 11:03:58;;;;;;;4.50;1.80;;;;;;;;;;4973577;28;20026;-60
2021/08/17 11:06:49;;;;;;;5.05;1.77;;;;;;;;;;4971624;28;20054;-61
2021/08/17 11:09:20;;;;;;;3.83;1.73;;;;;;;;;;4973468;28;20030;-60
2021/08/17 11:11:47;;;;;;;4.97;1.63;;;;;;;;;;4972614;28;20033;-58
2021/08/17 11:14:13;;;;;;;4.63;1.80;;;;;;;;;;4972125;28;20050;-60
2021/08/17 11:16:40;;;;;;;5.78;1.92;;;;;;;;;;4971617;28;20541;-58
2021/08/17 11:19:05;;;;;;;4.93;1.80;;;;;;;;;;4973077;28;20031;-60
2021/08/17 11:22:04;;;;;;;4.33;1.80;;;;;;;;;;4972488;28;20038;-61
2021/08/17 11:24:30;;;;;;;;;;;;;;;;;;4968555;28;20118;-61
2021/08/17 11:27:04;;;;;;;5.65;2.13;;;;;;;;;;4952632;28;19911;-60
2021/08/17 11:29:33;;;;;;;8.70;1.90;;;;;;;;;;4953360;29;20031;-60
2021/08/17 11:32:02;;;;;;;6.68;2.05;;;;;;;;;;4953464;29;20027;-60
2021/08/17 11:34:29;;;;;;;4.32;2.00;;;;;;;;;;4952038;29;20492;-59
2021/08/17 11:37:01;;;;;;;3.03;1.48;;;;;;;;;;4962599;28;20065;-57
2021/08/17 11:39:54;;;;;;;3.50;1.52;;;;;;;;;;4972773;28;20023;-61
2021/08/17 11:42:20;;;;;;;7.68;1.80;;;;;;;;;;4972210;28;20105;-59
2021/08/17 11:44:46;;;;;;;;;;;;;;;;;;4973268;28;20038;-61
2021/08/17 11:47:16;;;;;;;4.50;2.00;;;;;;;;;;4971950;28;19957;-60
2021/08/17 11:49:42;;;;;;;7.32;1.73;;;;;;;;;;4971246;28;20037;-61
2021/08/17 11:52:13;;;;;;;5.22;1.63;;;;;;;;;;4953165;28;20395;-55
2021/08/17 11:55:08;;;;;;;4.07;1.77;;;;;;;;;;4971874;28;20039;-59
2021/08/17 11:57:46;;;;;;;5.25;1.98;;;;;;;;;;4971862;28;20042;-55
2021/08/17 12:00:28;;;;;;;4.25;1.60;;;;;;;;;;4971221;28;20506;-55
2021/08/17 12:03:04;;;;;;;5.03;1.70;;;;;;;;;;4971646;28;20162;-56
2021/08/17 12:05:31;;;;;;;4.73;1.90;;;;;;;;;;4972059;28;20033;-53
2021/08/17 12:07:57;;;;;;;4.85;1.90;;;;;;;;;;4972420;28;20082;-56
2021/08/17 12:10:24;;;;;;;6.32;2.25;;;;;;;;;;4971975;28;20439;-56
2021/08/17 12:13:01;;;;;;;4.68;1.73;;;;;;;;;;4970307;28;20039;-56
2021/08/17 12:15:37;;;;;;;5.38;1.50;;;;;;;;;;4971281;28;20035;-53
2021/08/17 12:18:16;;;;;;;5.07;1.80;;;;;;;;;;4971388;28;20031;-52
2021/08/17 12:21:08;;;;;;;4.28;1.70;;;;;;;;;;4966681;28;20031;-57
2021/08/17 12:23:42;;;;;;;5.78;1.92;;;;;;;;;;4970893;28;20031;-56
2021/08/17 12:26:20;;;;;;;5.13;1.67;;;;;;;;;;4970590;28;20022;-52
2021/08/17 12:28:47;;;;;;;5.30;1.90;;;;;;;;;;4971761;28;20390;-52
2021/08/17 12:31:29;;;;;;;5.75;2.08;;;;;;;;;;4971677;28;20022;-55
2021/08/17 12:33:58;;;;;;;4.72;1.90;;;;;;;;;;4970965;28;20031;-70
2021/08/17 12:36:44;;;;;;;4.00;1.80;;;;;;;;;;4970300;28;20483;-66
2021/08/17 12:39:12;;;;;;;4.95;1.90;;;;;;;;;;4969838;28;20035;-66
2021/08/17 12:41:39;;;;;;;3.58;1.70;;;;;;;;;;4971748;28;20026;-67
2021/08/17 12:44:37;;;;;;;4.55;1.92;;;;;;;;;;4970038;28;20057;-66
2021/08/17 12:47:11;;;;;;;;;;;;;;;;;;4956827;28;20038;-67
2021/08/17 12:49:43;;;;;;;3.70;1.50;;;;;;;;;;4970349;28;19914;-66
2021/08/17 12:52:44;;;;;;;5.20;1.85;;;;;;;;;;4970023;28;20022;-68
2021/08/17 12:55:13;;;;;;;3.90;1.60;;;;;;;;;;4971053;28;20097;-64
2021/08/17 12:57:41;;;;;;;4.53;1.75;;;;;;;;;;4969570;28;20023;-64
2021/08/17 13:00:11;;;;;;;5.47;1.58;;;;;;;;;;4970872;28;20133;-64
2021/08/17 13:02:36;;;;;;;4.50;1.70;;;;;;;;;;4969011;28;20049;-67
2021/08/17 13:05:03;;;;;;;3.17;1.50;;;;;;;;;;4970076;28;20491;-65
2021/08/17 13:07:29;;;;;;;5.10;1.80;;;;;;;;;;4969208;28;20038;-67
2021/08/17 13:09:58;;;;;;;4.23;1.77;;;;;;;;;;4970915;28;20376;-66
2021/08/17 13:12:24;;;;;;;5.25;1.80;;;;;;;;;;4970635;28;20372;-66
2021/08/17 13:14:49;;;;;;;4.60;1.55;;;;;;;;;;4970489;28;20038;-70
2021/08/17 13:17:15;;;;;;;3.50;1.53;;;;;;;;;;4970962;28;20037;-64
2021/08/17 13:19:40;;;;;;;5.13;1.40;;;;;;;;;;4970982;28;20110;-66
2021/08/17 13:22:05;;;;;;;4.27;1.60;;;;;;;;;;4970952;28;20158;-68
2021/08/17 13:24:31;;;;;;;7.33;1.60;;;;;;;;;;4971098;28;20387;-69
2021/08/17 13:26:56;;;;;;;3.57;1.63;;;;;;;;;;4969990;28;20124;-67
2021/08/17 13:29:22;;;;;;;3.30;1.47;;;;;;;;;;4969862;28;20109;-67
2021/08/17 13:31:47;;;;;;;4.53;1.77;;;;;;;;;;4970066;28;20026;-73
2021/08/17 13:34:13;;;;;;;5.83;2.00;;;;;;;;;;4970097;28;20033;-66
2021/08/17 13:36:38;;;;;;;4.70;1.90;;;;;;;;;;4969455;28;20110;-64
2021/08/17 13:39:04;;;;;;;4.63;1.80;;;;;;;;;;4985676;28;20125;-63
2021/08/17 13:41:30;;;;;;;3.83;1.70;;;;;;;;;;4969565;28;20092;-66
2021/08/17 13:43:57;;;;;;;3.63;1.77;;;;;;;;;;4970375;28;20410;-68
2021/08/17 13:46:22;;;;;;;4.72;1.85;;;;;;;;;;4969714;28;20089;-72
2021/08/17 13:48:47;;;;;;;4.10;2.00;;;;;;;;;;4970527;28;20031;-64
2021/08/17 13:51:13;;;;;;;4.33;1.57;;;;;;;;;;4972024;28;20341;-65
2021/08/17 13:53:38;;;;;;;5.77;1.83;;;;;;;;;;4973052;28;20153;-64
2021/08/17 13:56:04;;;;;;;6.87;1.80;;;;;;;;;;4973885;28;20530;-65
2021/08/17 13:58:29;;;;;;;4.67;1.70;;;;;;;;;;4974373;28;20035;-65
2021/08/17 14:00:54;;;;;;;5.37;2.00;;;;;;;;;;4973847;28;20026;-65
2021/08/17 14:03:20;;;;;;;5.30;1.90;;;;;;;;;;4973149;28;20105;-65
2021/08/17 14:05:49;;;;;;;4.50;1.70;;;;;;;;;;4974403;28;20398;-66
2021/08/17 14:16:01;;;;;;;6.25;2.22;;;;;;;;;;4992741;28;20047;-85
2021/08/17 14:18:50;;;;;;;7.57;2.10;;;;;;;;;;4962655;28;20137;-86
2021/08/17 14:21:28;;;;;;;3.67;1.70;;;;;;;;;;4962129;28;20026;-87
2021/08/17 14:24:12;;;;;;;5.20;1.92;;;;;;;;;;4962137;28;20065;-84
2021/08/17 14:26:39;;;;;;;5.68;2.05;;;;;;;;;;4961945;28;20471;-87
2021/08/17 14:29:49;;;;;;;5.05;1.92;;;;;;;;;;4961715;28;20037;-84
2021/08/17 14:32:56;;;;;;;3.88;1.67;;;;;;;;;;4985409;28;20448;-84
2021/08/17 14:38:25;;;;;;;12.65;8.02;;;;;;;;;;4995582;28;19952;-85
2021/08/17 14:41:06;;;;;;;6.43;2.47;;;;;;;;;;4962203;28;20053;-85
2021/08/17 14:43:37;;;;;;;5.85;1.60;;;;;;;;;;4961959;28;20543;-85
2021/08/17 14:46:28;;;;;;;4.00;1.77;;;;;;;;;;4961579;28;20133;-86
2021/08/17 14:55:20;;;;;;;4.35;1.90;;;;;;;;;;4995467;28;20037;-85
2021/08/17 14:57:45;;;;;;;7.23;2.20;;;;;;;;;;4961793;28;20026;-85
2021/08/17 15:11:06;;;;;;;5.60;2.10;;;;;;;;;;4995257;28;20041;-85
2021/08/17 15:14:14;;;;;;;5.47;2.00;;;;;;;;;;4994600;28;20141;-85
2021/08/17 15:16:40;;;;;;;5.03;2.03;;;;;;;;;;4990121;28;20050;-85
2021/08/17 15:19:40;;;;;;;4.83;1.93;;;;;;;;;;4961250;28;20065;-85
2021/08/17 15:25:30;;;;;;;4.45;1.83;;;;;;;;;;4904690;28;20430;-85
2021/08/17 15:28:51;;;;;;;6.32;2.10;;;;;;;;;;4961068;28;20036;-85
2021/08/17 15:31:35;;;;;;;5.70;2.10;;;;;;;;;;4994534;28;20408;-85
2021/08/17 15:34:12;;;;;;;6.10;1.92;;;;;;;;;;4961380;28;20022;-85
2021/08/17 15:37:00;;;;;;;5.05;2.08;;;;;;;;;;4930547;28;20042;-84
2021/08/17 15:39:28;;;;;;;5.70;1.80;;;;;;;;;;4976996;28;20657;-85
2021/08/17 15:42:23;;;;;;;7.80;1.98;;;;;;;;;;4945288;28;20030;-85
2021/08/17 15:44:48;;;;;;;5.97;2.15;;;;;;;;;;4964414;28;20121;-85
2021/08/17 15:47:15;;;;;;;5.90;2.17;;;;;;;;;;4944926;28;20125;-85
2021/08/17 15:49:41;;;;;;;4.97;1.90;;;;;;;;;;4944962;28;20440;-85
2021/08/17 15:52:06;;;;;;;4.97;2.05;;;;;;;;;;4960426;28;20404;-86
2021/08/17 15:54:32;;;;;;;4.73;2.10;;;;;;;;;;4944897;28;20026;-85
2021/08/17 15:56:57;;;;;;;5.03;2.00;;;;;;;;;;4960766;28;20034;-85
2021/08/17 15:59:23;;;;;;;5.10;2.00;;;;;;;;;;4944561;28;20404;-87
2021/08/17 16:01:48;;;;;;;5.10;2.00;;;;;;;;;;4944377;28;20559;-84
2021/08/17 16:04:16;;;;;;;5.20;2.10;;;;;;;;;;4944456;28;20112;-85
2021/08/17 16:06:41;;;;;;;5.75;2.20;;;;;;;;;;4960581;28;20109;-86
2021/08/17 16:09:07;;;;;;;6.97;2.40;;;;;;;;;;4944525;28;20129;-85
2021/08/17 16:11:34;;;;;;;7.93;2.05;;;;;;;;;;4940908;28;20034;-87
2021/08/17 16:14:00;;;;;;;5.50;1.85;;;;;;;;;;4957303;28;20034;-85
2021/08/17 16:16:25;;;;;;;6.77;1.97;;;;;;;;;;4925269;28;20030;-85
2021/08/17 16:18:50;;;;;;;4.33;1.90;;;;;;;;;;4941055;28;20022;-85
2021/08/17 16:21:16;;;;;;;5.00;2.03;;;;;;;;;;4940974;28;20033;-85
